Time;durP1;ratioP1;P1;durP2;ratioP2;P2;SDS_P1;SDS_P2;PMS_P1;PMS_P2;Temp;Humidity;BMP_temperature;BMP_pressure;BME280_temperature;BME280_humidity;BME280_pressure;Samples;Min_cycle;Max_cycle;Signal;HPM_P1;HPM_P2
2023/09/11 00:00:51;;;;;;;4.57;3.83;;;22.90;99.90;;;;;;5053229;28;20033;-39
2023/09/11 00:03:17;;;;;;;4.97;3.58;;;23.00;99.90;;;;;;5051838;28;20029;-41
2023/09/11 00:05:43;;;;;;;5.57;4.00;;;23.00;99.90;;;;;;5052962;28;20120;-42
2023/09/11 00:08:09;;;;;;;5.13;3.47;;;22.90;99.90;;;;;;5053161;28;20028;-42
2023/09/11 00:10:35;;;;;;;4.43;3.78;;;22.90;99.90;;;;;;5052897;28;20021;-42
2023/09/11 00:13:01;;;;;;;4.53;3.58;;;22.90;99.90;;;;;;5053107;28;20470;-43
2023/09/11 00:15:27;;;;;;;7.75;3.80;;;22.90;99.90;;;;;;5052945;28;20171;-44
2023/09/11 00:17:52;;;;;;;5.53;3.42;;;22.90;99.90;;;;;;5052852;28;20020;-41
2023/09/11 00:20:18;;;;;;;5.55;3.85;;;22.90;99.90;;;;;;5052651;28;20470;-41
2023/09/11 00:22:43;;;;;;;5.68;3.72;;;22.90;99.90;;;;;;5052958;28;20033;-41
2023/09/11 00:25:09;;;;;;;4.97;3.70;;;22.90;99.90;;;;;;5052711;28;20025;-42
2023/09/11 00:27:36;;;;;;;5.38;3.72;;;22.90;99.90;;;;;;5052767;28;20528;-41
2023/09/11 00:30:03;;;;;;;5.78;3.67;;;22.90;99.90;;;;;;5052504;28;20036;-41
2023/09/11 00:32:29;;;;;;;5.63;3.72;;;22.90;99.90;;;;;;5052641;28;20067;-41
2023/09/11 00:34:55;;;;;;;4.28;3.88;;;22.90;99.90;;;;;;5052392;28;20048;-40
2023/09/11 00:37:20;;;;;;;7.40;3.65;;;22.90;99.90;;;;;;5052602;28;20029;-41
2023/09/11 00:39:46;;;;;;;6.35;3.67;;;22.90;99.90;;;;;;5052322;28;20468;-44
2023/09/11 00:42:12;;;;;;;6.32;3.95;;;22.90;99.90;;;;;;5051778;28;20021;-41
2023/09/11 00:44:37;;;;;;;4.72;3.92;;;22.90;99.90;;;;;;5052381;28;20021;-41
2023/09/11 00:47:03;;;;;;;8.65;3.75;;;22.90;99.90;;;;;;5052411;28;20078;-43
2023/09/11 00:49:29;;;;;;;4.70;3.83;;;22.80;99.90;;;;;;5052037;28;20029;-43
2023/09/11 00:51:55;;;;;;;8.02;3.97;;;22.90;99.90;;;;;;5052313;28;20432;-42
2023/09/11 00:54:22;;;;;;;4.78;3.30;;;22.80;99.90;;;;;;5052134;28;20029;-41
2023/09/11 00:56:48;;;;;;;5.97;3.60;;;22.80;99.90;;;;;;5052183;28;20379;-43
2023/09/11 00:59:14;;;;;;;5.40;3.85;;;22.90;99.90;;;;;;5051977;28;20021;-41
2023/09/11 01:01:44;;;;;;;6.05;4.05;;;22.80;99.90;;;;;;5052153;28;20036;-40
2023/09/11 01:04:10;;;;;;;4.70;3.45;;;22.80;99.90;;;;;;5051803;28;20529;-41
2023/09/11 01:06:36;;;;;;;5.43;3.60;;;22.80;99.90;;;;;;5052075;28;20074;-44
2023/09/11 01:09:03;;;;;;;4.88;4.00;;;22.80;99.90;;;;;;5051863;28;20035;-41
2023/09/11 01:11:29;;;;;;;5.32;3.75;;;22.90;99.90;;;;;;5051981;28;20025;-44
2023/09/11 01:13:56;;;;;;;5.35;3.90;;;22.80;99.90;;;;;;5052304;28;20475;-41
2023/09/11 01:16:45;;;;;;;5.50;3.90;;;22.80;99.90;;;;;;5051755;28;20409;-43
2023/09/11 01:19:19;;;;;;;4.57;3.70;;;22.80;99.90;;;;;;5051549;28;20177;-44
2023/09/11 01:22:04;;;;;;;5.15;3.63;;;22.80;99.90;;;;;;5051803;28;20078;-41
2023/09/11 01:24:47;;;;;;;6.57;4.22;;;22.80;99.90;;;;;;5051657;28;20028;-44
2023/09/11 01:27:31;;;;;;;5.28;3.55;;;22.80;99.90;;;;;;5051674;28;20021;-42
2023/09/11 01:29:58;;;;;;;5.53;3.60;;;22.80;99.90;;;;;;5051717;28;20025;-41
2023/09/11 01:32:25;;;;;;;6.75;3.65;;;22.80;99.90;;;;;;5051913;28;20025;-41
2023/09/11 01:34:52;;;;;;;5.00;3.92;;;22.80;99.90;;;;;;5051449;28;20039;-43
2023/09/11 01:37:17;;;;;;;5.18;3.70;;;22.80;99.90;;;;;;5051359;28;20017;-40
2023/09/11 01:39:43;;;;;;;5.28;3.83;;;22.80;99.90;;;;;;5051515;28;20414;-44
2023/09/11 01:42:17;;;;;;;6.05;4.10;;;22.80;99.90;;;;;;5051329;28;20526;-43
2023/09/11 01:44:44;;;;;;;5.97;3.97;;;22.80;99.90;;;;;;5051361;28;20025;-44
2023/09/11 01:47:17;;;;;;;4.90;3.58;;;22.80;99.90;;;;;;5051376;28;20027;-40
2023/09/11 01:49:44;;;;;;;4.25;3.53;;;22.80;99.90;;;;;;5051130;28;20111;-46
2023/09/11 01:52:11;;;;;;;4.03;3.33;;;22.80;99.90;;;;;;5050736;28;20025;-42
2023/09/11 01:54:37;;;;;;;5.18;3.80;;;22.80;99.90;;;;;;5051063;28;20112;-43
2023/09/11 01:57:05;;;;;;;4.25;3.63;;;22.80;99.90;;;;;;5051472;28;20112;-44
2023/09/11 01:59:32;;;;;;;4.95;3.63;;;22.80;99.90;;;;;;5051024;28;20033;-43
2023/09/11 02:01:58;;;;;;;5.45;3.47;;;22.80;99.90;;;;;;5051265;28;20105;-43
2023/09/11 02:04:23;;;;;;;4.88;3.90;;;22.80;99.90;;;;;;5050979;28;20100;-41
2023/09/11 02:06:49;;;;;;;5.18;4.00;;;22.80;99.90;;;;;;5051290;28;20079;-44
2023/09/11 02:09:15;;;;;;;5.40;3.53;;;22.80;99.90;;;;;;5050875;28;20482;-44
2023/09/11 02:11:40;;;;;;;4.00;3.60;;;22.80;99.90;;;;;;5051152;28;20035;-42
2023/09/11 02:14:06;;;;;;;5.05;3.78;;;22.80;99.90;;;;;;5051106;28;20025;-46
2023/09/11 02:16:31;;;;;;;5.53;3.95;;;22.70;99.90;;;;;;5051118;28;20478;-43
2023/09/11 02:18:57;;;;;;;6.35;4.22;;;22.80;99.90;;;;;;5050745;28;20094;-41
2023/09/11 02:21:23;;;;;;;5.40;4.35;;;22.70;99.90;;;;;;5051020;28;20025;-43
2023/09/11 02:23:48;;;;;;;6.47;3.90;;;22.70;99.90;;;;;;5050921;28;20033;-48
2023/09/11 02:26:14;;;;;;;4.75;3.70;;;22.80;99.90;;;;;;5051069;28;20064;-43
2023/09/11 02:28:40;;;;;;;5.53;3.80;;;22.80;99.90;;;;;;5050935;28;20028;-41
2023/09/11 02:31:06;;;;;;;4.68;3.63;;;22.80;99.90;;;;;;5050803;28;20025;-41
2023/09/11 02:33:32;;;;;;;5.10;3.85;;;22.70;99.90;;;;;;5050803;28;20021;-43
2023/09/11 02:35:58;;;;;;;7.15;3.97;;;22.80;99.90;;;;;;5050800;28;20378;-45
2023/09/11 02:38:24;;;;;;;6.30;4.03;;;22.70;99.90;;;;;;5050906;28;20037;-43
2023/09/11 02:40:49;;;;;;;5.75;3.80;;;22.70;99.90;;;;;;5050686;28;20057;-47
2023/09/11 02:43:15;;;;;;;6.18;3.85;;;22.70;99.90;;;;;;5050836;28;20108;-41
2023/09/11 02:45:43;;;;;;;6.47;4.00;;;22.70;99.90;;;;;;5050856;28;20025;-43
2023/09/11 02:48:09;;;;;;;4.03;3.63;;;22.70;99.90;;;;;;5050715;28;20018;-41
2023/09/11 02:50:34;;;;;;;7.53;4.22;;;22.70;99.90;;;;;;5050450;28;20048;-41
2023/09/11 02:53:00;;;;;;;6.43;3.90;;;22.70;99.90;;;;;;5050731;28;20029;-43
2023/09/11 02:55:26;;;;;;;6.05;4.25;;;22.70;99.90;;;;;;5050693;28;20025;-43
2023/09/11 02:57:51;;;;;;;6.10;4.00;;;22.70;99.90;;;;;;5049635;28;20035;-42
2023/09/11 03:00:17;;;;;;;6.90;3.90;;;22.70;99.90;;;;;;5050478;28;20031;-40
2023/09/11 03:02:44;;;;;;;5.93;4.15;;;22.70;99.90;;;;;;5050453;28;20478;-41
2023/09/11 03:05:10;;;;;;;5.43;4.00;;;22.70;99.90;;;;;;5052785;28;20021;-47
2023/09/11 03:07:36;;;;;;;4.85;4.00;;;22.70;99.90;;;;;;5054459;28;20028;-42
2023/09/11 03:10:03;;;;;;;4.30;3.90;;;22.70;99.90;;;;;;5054086;28;20060;-42
2023/09/11 03:12:29;;;;;;;5.68;4.00;;;22.70;99.90;;;;;;5054255;28;20513;-43
2023/09/11 03:15:03;;;;;;;4.97;3.88;;;22.60;99.90;;;;;;5054101;28;20060;-41
2023/09/11 03:17:29;;;;;;;6.55;4.35;;;22.60;99.90;;;;;;5054080;28;20025;-44
2023/09/11 03:19:55;;;;;;;5.63;4.03;;;22.70;99.90;;;;;;5054201;28;20079;-41
2023/09/11 03:22:22;;;;;;;6.18;4.22;;;22.60;99.90;;;;;;5053927;28;20128;-41
2023/09/11 03:24:48;;;;;;;4.53;3.70;;;22.60;99.90;;;;;;5053877;28;20025;-41
2023/09/11 03:27:13;;;;;;;6.55;3.55;;;22.60;99.90;;;;;;5053960;28;20430;-42
2023/09/11 03:29:39;;;;;;;6.10;4.60;;;22.60;99.90;;;;;;5053789;28;20482;-42
2023/09/11 03:32:05;;;;;;;5.43;3.80;;;22.60;99.90;;;;;;5053736;28;20431;-42
2023/09/11 03:34:31;;;;;;;4.57;3.92;;;22.60;99.90;;;;;;5053744;28;20033;-43
2023/09/11 03:36:56;;;;;;;4.28;3.88;;;22.60;99.90;;;;;;5053814;28;20025;-41
2023/09/11 03:39:22;;;;;;;5.82;4.38;;;22.70;99.90;;;;;;5053588;28;20029;-43
2023/09/11 03:41:48;;;;;;;6.25;4.05;;;22.70;99.90;;;;;;5053980;28;20057;-45
2023/09/11 03:44:13;;;;;;;5.63;4.00;;;22.70;99.90;;;;;;5053899;28;20064;-41
2023/09/11 03:46:39;;;;;;;5.82;3.90;;;22.60;99.90;;;;;;5053414;28;20029;-41
2023/09/11 03:49:04;;;;;;;4.38;3.97;;;22.60;99.90;;;;;;5059656;22;20052;-35
2023/09/11 03:51:30;;;;;;;8.23;4.22;;;22.60;99.90;;;;;;5033474;28;20029;-35
2023/09/11 03:53:58;;;;;;;5.35;3.80;;;22.60;99.90;;;;;;5033497;28;20032;-35
2023/09/11 03:56:24;;;;;;;4.22;3.70;;;22.60;99.90;;;;;;5033514;28;20021;-35
2023/09/11 03:58:50;;;;;;;6.10;4.15;;;22.60;99.90;;;;;;5047989;28;20129;-35
2023/09/11 04:01:16;;;;;;;5.43;4.20;;;22.60;99.90;;;;;;5053655;28;20431;-34
2023/09/11 04:03:42;;;;;;;5.20;3.80;;;22.60;99.90;;;;;;5053164;28;20025;-35
2023/09/11 04:06:08;;;;;;;7.60;4.40;;;22.60;99.90;;;;;;5053158;28;20021;-35
2023/09/11 04:08:34;;;;;;;7.43;4.35;;;22.60;99.90;;;;;;5053113;28;20462;-35
2023/09/11 04:11:01;;;;;;;6.30;4.32;;;22.60;99.90;;;;;;5052981;28;20028;-35
2023/09/11 04:13:26;;;;;;;6.53;3.80;;;22.60;99.90;;;;;;5053229;28;20033;-35
2023/09/11 04:15:52;;;;;;;6.15;4.07;;;22.60;99.90;;;;;;5052091;28;20108;-35
2023/09/11 04:18:18;;;;;;;5.35;3.80;;;22.60;99.90;;;;;;5052916;28;20393;-34
2023/09/11 04:20:44;;;;;;;4.95;3.92;;;22.60;99.90;;;;;;5052643;28;20063;-35
2023/09/11 04:23:10;;;;;;;6.22;4.13;;;22.50;99.90;;;;;;5052823;28;20078;-34
2023/09/11 04:25:36;;;;;;;5.03;4.28;;;22.60;99.90;;;;;;5053036;28;20033;-35
2023/09/11 04:28:02;;;;;;;4.40;3.90;;;22.50;99.90;;;;;;5052743;28;20478;-35
2023/09/11 04:30:27;;;;;;;5.40;4.20;;;22.50;99.90;;;;;;5052622;28;20021;-35
2023/09/11 04:32:53;;;;;;;6.47;4.45;;;22.50;99.90;;;;;;5052662;28;20367;-35
2023/09/11 04:35:18;;;;;;;7.43;4.10;;;22.60;99.90;;;;;;5052569;28;20083;-35
2023/09/11 04:37:44;;;;;;;6.57;4.30;;;22.50;99.90;;;;;;5052640;28;20023;-34
2023/09/11 04:40:10;;;;;;;7.30;4.47;;;22.50;99.90;;;;;;5052429;28;20029;-35
2023/09/11 04:42:36;;;;;;;4.78;3.90;;;22.50;99.90;;;;;;5052521;28;20033;-35
2023/09/11 04:45:03;;;;;;;10.95;4.53;;;22.60;99.90;;;;;;5052567;28;20036;-34
2023/09/11 04:47:33;;;;;;;10.40;4.88;;;22.50;99.90;;;;;;5052327;28;20025;-36
2023/09/11 04:49:58;;;;;;;7.30;4.50;;;22.30;99.90;;;;;;5052140;28;20025;-36
2023/09/11 04:52:25;;;;;;;7.28;4.45;;;22.00;99.90;;;;;;5052372;28;20074;-36
2023/09/11 04:54:50;;;;;;;8.05;5.10;;;21.90;99.90;;;;;;5052344;28;20466;-36
2023/09/11 04:57:16;;;;;;;11.73;5.38;;;21.90;99.90;;;;;;5052208;28;20039;-36
2023/09/11 04:59:42;;;;;;;8.27;5.18;;;21.90;99.90;;;;;;5050723;28;20029;-35
2023/09/11 05:02:10;;;;;;;8.10;4.93;;;22.00;99.90;;;;;;5052190;28;20021;-36
2023/09/11 05:04:36;;;;;;;9.50;5.18;;;22.00;99.90;;;;;;5051995;28;20024;-35
2023/09/11 05:07:02;;;;;;;9.90;4.93;;;22.00;99.90;;;;;;5052082;28;20025;-36
2023/09/11 05:09:30;;;;;;;7.50;4.55;;;22.10;99.90;;;;;;5051969;28;20025;-35
2023/09/11 05:11:56;;;;;;;7.50;5.30;;;22.10;99.90;;;;;;5052005;28;20047;-36
2023/09/11 05:14:22;;;;;;;7.60;5.03;;;22.10;99.90;;;;;;5052405;28;20513;-36
2023/09/11 05:16:47;;;;;;;6.40;4.57;;;22.10;99.90;;;;;;5051823;28;20025;-36
2023/09/11 05:19:13;;;;;;;7.28;4.60;;;22.10;99.90;;;;;;5051503;28;20406;-36
2023/09/11 05:21:38;;;;;;;6.18;4.47;;;22.10;99.90;;;;;;5051813;28;20509;-36
2023/09/11 05:24:04;;;;;;;6.97;4.40;;;22.20;99.90;;;;;;5051661;28;20040;-36
2023/09/11 05:26:30;;;;;;;9.63;4.75;;;22.20;99.90;;;;;;5051716;28;20100;-36
2023/09/11 05:28:56;;;;;;;8.88;4.68;;;22.20;99.90;;;;;;5051724;28;20028;-36
2023/09/11 05:31:22;;;;;;;7.22;4.70;;;22.20;99.90;;;;;;5051545;28;20382;-36
2023/09/11 05:33:47;;;;;;;8.68;5.05;;;22.20;99.90;;;;;;5051575;28;20035;-36
2023/09/11 05:36:13;;;;;;;8.60;5.10;;;22.20;99.90;;;;;;5051572;28;20029;-35
2023/09/11 05:38:39;;;;;;;8.57;5.05;;;22.30;99.90;;;;;;5051468;28;20040;-36
2023/09/11 05:41:04;;;;;;;5.57;4.47;;;22.30;99.90;;;;;;5051374;28;20020;-36
2023/09/11 05:43:31;;;;;;;8.05;4.75;;;22.20;99.90;;;;;;5051499;28;20039;-36
2023/09/11 05:45:57;;;;;;;5.95;4.53;;;22.30;99.90;;;;;;5051390;28;20025;-36
2023/09/11 05:48:23;;;;;;;10.10;4.57;;;22.20;99.90;;;;;;5051137;28;20469;-36
2023/09/11 05:50:48;;;;;;;10.77;5.15;;;22.20;99.90;;;;;;5051284;28;20033;-36
2023/09/11 05:53:14;;;;;;;9.35;4.50;;;22.30;99.90;;;;;;5051382;28;20037;-36
2023/09/11 05:55:40;;;;;;;7.03;4.32;;;22.20;99.90;;;;;;5051407;28;20036;-36
2023/09/11 05:58:05;;;;;;;9.45;4.63;;;22.30;99.90;;;;;;5051377;28;20111;-36
2023/09/11 06:00:31;;;;;;;10.68;4.47;;;22.30;99.90;;;;;;5050989;28;20481;-36
2023/09/11 06:02:56;;;;;;;8.60;4.75;;;22.30;99.90;;;;;;5051121;28;20086;-35
2023/09/11 06:05:23;;;;;;;5.95;4.30;;;22.30;99.90;;;;;;5051266;28;20021;-36
2023/09/11 06:07:49;;;;;;;6.88;4.32;;;22.30;99.90;;;;;;5051135;28;20021;-36
2023/09/11 06:10:14;;;;;;;8.07;4.70;;;22.30;99.90;;;;;;5051034;28;20417;-36
2023/09/11 06:12:40;;;;;;;7.55;4.20;;;22.30;99.90;;;;;;5051189;28;20021;-36
2023/09/11 06:15:06;;;;;;;6.75;4.93;;;22.30;99.90;;;;;;5051039;28;20028;-36
2023/09/11 06:17:35;;;;;;;8.25;4.07;;;22.30;99.90;;;;;;5050959;28;20412;-36
2023/09/11 06:20:01;;;;;;;5.72;4.55;;;22.30;99.90;;;;;;5050911;28;20032;-37
2023/09/11 06:22:27;;;;;;;5.70;4.57;;;22.30;99.90;;;;;;5050983;28;20033;-36
2023/09/11 06:24:52;;;;;;;6.35;4.75;;;22.30;99.90;;;;;;5051130;28;20214;-36
2023/09/11 06:27:19;;;;;;;9.05;4.40;;;22.30;99.90;;;;;;5050964;28;20390;-36
2023/09/11 06:29:44;;;;;;;9.90;4.18;;;22.30;99.90;;;;;;5050696;28;20088;-36
2023/09/11 06:32:15;;;;;;;9.52;4.13;;;22.30;99.90;;;;;;5050929;28;20059;-36
2023/09/11 06:34:40;;;;;;;6.43;4.05;;;22.30;99.90;;;;;;5050980;28;20013;-36
2023/09/11 06:37:09;;;;;;;6.50;4.25;;;22.40;99.90;;;;;;5050901;28;20367;-36
2023/09/11 06:39:34;;;;;;;9.90;5.15;;;22.40;99.90;;;;;;5052576;28;20021;-36
2023/09/11 06:42:00;;;;;;;12.38;5.32;;;22.00;99.90;;;;;;5054825;28;20527;-35
2023/09/11 06:44:26;;;;;;;9.05;5.28;;;21.40;99.90;;;;;;5054618;28;20029;-36
2023/09/11 06:46:51;;;;;;;7.38;4.95;;;21.30;99.90;;;;;;5054748;28;20028;-36
2023/09/11 06:49:17;;;;;;;8.43;5.35;;;21.30;99.90;;;;;;5054337;28;20075;-36
2023/09/11 06:51:43;;;;;;;6.07;4.78;;;;;;;;;;5054653;28;20022;-36
2023/09/11 06:54:09;;;;;;;8.60;4.85;;;21.00;99.90;;;;;;5054595;28;20498;-35
2023/09/11 06:56:36;;;;;;;10.65;5.22;;;20.90;99.90;;;;;;5055003;28;20052;-36
2023/09/11 06:59:02;;;;;;;9.20;5.53;;;20.90;99.90;;;;;;5054197;28;20021;-36
2023/09/11 07:01:28;;;;;;;7.93;4.90;;;20.80;99.90;;;;;;5054404;28;20390;-35
2023/09/11 07:03:54;;;;;;;9.70;5.13;;;20.80;99.90;;;;;;5054337;28;20021;-36
2023/09/11 07:06:20;;;;;;;6.65;4.78;;;20.80;99.90;;;;;;5054414;28;20032;-35
2023/09/11 07:08:45;;;;;;;10.60;5.38;;;20.80;99.90;;;;;;5053127;28;20032;-36
2023/09/11 07:11:11;;;;;;;10.43;5.28;;;20.90;99.90;;;;;;5054216;28;20112;-36
2023/09/11 07:13:37;;;;;;;11.40;5.22;;;20.90;99.90;;;;;;5054117;28;20096;-36
2023/09/11 07:16:04;;;;;;;9.85;5.22;;;20.90;99.90;;;;;;5054202;28;20032;-35
2023/09/11 07:18:32;;;;;;;8.88;5.60;;;20.90;99.90;;;;;;5054151;28;20025;-35
2023/09/11 07:20:58;;;;;;;9.93;5.15;;;21.00;99.90;;;;;;5053928;28;20128;-35
2023/09/11 07:23:27;;;;;;;7.72;5.22;;;21.00;99.90;;;;;;5054013;28;20513;-36
2023/09/11 07:25:55;;;;;;;9.38;5.78;;;21.10;99.90;;;;;;5054014;28;20013;-36
2023/09/11 07:28:24;;;;;;;9.23;4.60;;;21.00;99.90;;;;;;5053701;28;20086;-36
2023/09/11 07:30:50;;;;;;;10.57;5.32;;;21.10;99.90;;;;;;5053733;28;20093;-36
2023/09/11 07:33:15;;;;;;;13.02;5.13;;;21.10;99.90;;;;;;5053943;28;20025;-36
2023/09/11 07:35:41;;;;;;;8.77;4.82;;;21.20;99.90;;;;;;5054251;28;20087;-36
2023/09/11 07:38:07;;;;;;;7.55;5.32;;;21.30;99.90;;;;;;5053781;28;20027;-36
2023/09/11 07:40:32;;;;;;;8.13;5.20;;;21.40;99.90;;;;;;5053585;28;20452;-35
2023/09/11 07:42:58;;;;;;;8.05;5.03;;;21.50;99.90;;;;;;5053563;28;20371;-36
2023/09/11 07:45:24;;;;;;;7.75;5.00;;;21.50;99.90;;;;;;5053620;28;20024;-36
2023/09/11 07:47:50;;;;;;;9.73;4.80;;;21.60;99.90;;;;;;5053566;28;20502;-36
2023/09/11 07:50:16;;;;;;;8.73;4.97;;;21.60;99.90;;;;;;5053408;28;20102;-36
2023/09/11 07:52:42;;;;;;;7.63;4.78;;;21.70;99.90;;;;;;5053471;28;20021;-36
2023/09/11 07:55:08;;;;;;;11.30;5.10;;;21.70;99.90;;;;;;5053480;28;20029;-36
2023/09/11 07:57:33;;;;;;;9.23;4.57;;;21.80;99.90;;;;;;5053267;28;20036;-36
2023/09/11 08:00:04;;;;;;;10.90;4.60;;;21.80;99.90;;;;;;5053154;28;20028;-36
2023/09/11 08:02:30;;;;;;;5.50;4.32;;;21.80;99.90;;;;;;5053309;28;20106;-36
2023/09/11 08:04:56;;;;;;;7.38;4.40;;;21.90;99.90;;;;;;5053288;28;20071;-36
2023/09/11 08:07:22;;;;;;;5.50;4.30;;;21.90;99.90;;;;;;5053203;28;20025;-36
2023/09/11 08:09:48;;;;;;;10.38;4.57;;;22.00;99.90;;;;;;5052881;28;20021;-35
2023/09/11 08:12:13;;;;;;;5.70;4.47;;;22.00;99.90;;;;;;5053208;28;20028;-36
2023/09/11 08:14:39;;;;;;;7.13;4.38;;;22.00;99.90;;;;;;5053121;28;20021;-36
2023/09/11 08:17:04;;;;;;;4.68;3.85;;;22.00;99.90;;;;;;5053442;28;20025;-36
2023/09/11 08:19:30;;;;;;;5.45;4.35;;;22.10;99.90;;;;;;5052830;28;20051;-35
2023/09/11 08:21:56;;;;;;;6.35;4.18;;;22.10;99.90;;;;;;5053022;28;20041;-36
2023/09/11 08:24:23;;;;;;;5.80;4.40;;;22.10;99.90;;;;;;5052797;28;20112;-36
2023/09/11 08:26:48;;;;;;;4.72;4.10;;;22.10;99.90;;;;;;5052938;28;20029;-35
2023/09/11 08:29:15;;;;;;;5.68;4.28;;;22.10;99.90;;;;;;5052587;28;20043;-36
2023/09/11 08:31:41;;;;;;;6.60;4.32;;;22.20;99.90;;;;;;5052853;28;20017;-35
2023/09/11 08:34:07;;;;;;;6.18;3.92;;;22.20;99.90;;;;;;5052785;28;20418;-35
2023/09/11 08:36:32;;;;;;;6.47;4.43;;;22.20;99.90;;;;;;5052787;28;20064;-36
2023/09/11 08:38:59;;;;;;;5.05;4.10;;;22.30;99.90;;;;;;5052358;28;20437;-35
2023/09/11 08:41:25;;;;;;;5.97;3.88;;;22.30;99.90;;;;;;5052637;28;20029;-36
2023/09/11 08:43:52;;;;;;;5.32;3.50;;;22.30;99.90;;;;;;5052419;28;20052;-35
2023/09/11 08:46:18;;;;;;;5.20;4.00;;;22.30;99.90;;;;;;5052769;28;20484;-36
2023/09/11 08:48:46;;;;;;;4.95;4.00;;;22.30;99.90;;;;;;5052305;28;20078;-36
2023/09/11 08:51:20;;;;;;;6.22;3.75;;;22.30;99.90;;;;;;5052386;28;20518;-36
2023/09/11 08:53:47;;;;;;;3.97;3.58;;;22.30;99.90;;;;;;5052332;28;20033;-36
2023/09/11 08:56:14;;;;;;;4.45;4.03;;;22.40;99.90;;;;;;5052353;28;20061;-36
2023/09/11 08:58:41;;;;;;;5.38;4.00;;;22.40;99.90;;;;;;5052285;28;20428;-35
2023/09/11 09:01:07;;;;;;;4.75;4.07;;;22.40;99.90;;;;;;5052091;28;20115;-36
2023/09/11 09:03:34;;;;;;;7.72;4.13;;;22.40;99.90;;;;;;5051595;28;20025;-36
2023/09/11 09:06:01;;;;;;;5.80;4.25;;;22.50;99.90;;;;;;5052030;28;20033;-35
2023/09/11 09:08:27;;;;;;;5.63;4.50;;;22.50;99.90;;;;;;5052230;28;20394;-36
2023/09/11 09:10:53;;;;;;;4.68;3.90;;;22.40;99.90;;;;;;5051888;28;20025;-36
2023/09/11 09:13:19;;;;;;;4.50;3.83;;;22.50;99.90;;;;;;5051943;28;20036;-36
2023/09/11 09:15:45;;;;;;;7.80;4.40;;;22.50;99.90;;;;;;5051956;28;20033;-36
2023/09/11 09:18:11;;;;;;;4.88;3.58;;;22.50;99.90;;;;;;5051829;28;20025;-35
2023/09/11 09:20:38;;;;;;;4.68;3.60;;;22.50;99.90;;;;;;5051531;28;20474;-35
2023/09/11 09:23:04;;;;;;;5.38;4.13;;;22.50;99.90;;;;;;5051738;28;20021;-36
2023/09/11 09:25:30;;;;;;;9.25;3.95;;;22.50;99.90;;;;;;5051794;28;20028;-36
2023/09/11 09:27:59;;;;;;;5.38;3.88;;;22.50;99.90;;;;;;5051628;28;20017;-36
2023/09/11 09:30:29;;;;;;;5.00;4.00;;;22.50;99.90;;;;;;5051533;28;20021;-36
2023/09/11 09:32:55;;;;;;;6.07;4.22;;;22.50;99.90;;;;;;5051652;28;20389;-36
2023/09/11 09:35:34;;;;;;;4.55;3.63;;;22.60;99.90;;;;;;5051522;28;20020;-35
2023/09/11 09:38:01;;;;;;;7.78;4.05;;;22.60;99.90;;;;;;5051562;28;20025;-36
2023/09/11 09:40:37;;;;;;;4.70;3.80;;;22.60;99.90;;;;;;5051386;28;20055;-36
2023/09/11 09:43:13;;;;;;;5.38;3.40;;;22.60;99.90;;;;;;5051451;28;20029;-36
2023/09/11 09:45:42;;;;;;;5.45;4.03;;;22.70;99.90;;;;;;5051459;28;20057;-36
2023/09/11 09:48:20;;;;;;;4.35;3.67;;;22.70;99.90;;;;;;5074031;23;20434;-39
2023/09/11 09:51:05;;;;;;;6.03;3.90;;;22.60;99.90;;;;;;5051415;28;20029;-37
2023/09/11 09:53:41;;;;;;;4.68;3.58;;;22.60;99.90;;;;;;5051304;28;20095;-39
2023/09/11 09:56:08;;;;;;;4.00;3.20;;;22.60;99.90;;;;;;5051390;28;20104;-37
2023/09/11 09:58:38;;;;;;;4.13;3.72;;;22.70;99.90;;;;;;5051337;28;20029;-38
2023/09/11 10:01:06;;;;;;;7.65;3.97;;;22.70;99.90;;;;;;5051434;28;20033;-40
2023/09/11 10:03:49;;;;;;;4.60;3.65;;;22.70;99.90;;;;;;5051195;28;20025;-39
2023/09/11 10:06:17;;;;;;;5.68;3.60;;;22.70;99.90;;;;;;5051270;28;20509;-38
2023/09/11 10:08:43;;;;;;;4.22;3.35;;;22.70;99.90;;;;;;5049660;28;20025;-40
2023/09/11 10:11:28;;;;;;;4.97;3.60;;;22.80;99.90;;;;;;5051249;28;20028;-37
2023/09/11 10:13:57;;;;;;;4.63;3.33;;;22.80;99.90;;;;;;5051609;28;20473;-37
2023/09/11 10:16:24;;;;;;;4.55;3.42;;;22.80;99.90;;;;;;5055692;28;20025;-42
2023/09/11 10:18:53;;;;;;;4.95;3.72;;;22.80;99.90;;;;;;5055133;28;20461;-37
2023/09/11 10:21:18;;;;;;;4.50;3.72;;;22.80;99.90;;;;;;5055120;28;20033;-36
2023/09/11 10:23:45;;;;;;;3.88;3.25;;;22.80;99.90;;;;;;5055114;28;20078;-43
2023/09/11 10:26:16;;;;;;;5.43;3.50;;;22.80;99.90;;;;;;5055137;28;20397;-43
2023/09/11 10:28:45;;;;;;;3.88;3.40;;;22.80;99.90;;;;;;5054981;28;20023;-38
2023/09/11 10:31:20;;;;;;;4.40;3.60;;;22.80;99.90;;;;;;5053656;28;20025;-41
2023/09/11 10:33:49;;;;;;;4.00;3.33;;;22.80;99.90;;;;;;5054943;28;20025;-43
2023/09/11 10:36:20;;;;;;;5.70;3.88;;;22.80;99.90;;;;;;5055041;28;20094;-39
2023/09/11 10:38:47;;;;;;;3.92;3.47;;;22.90;99.90;;;;;;5053490;28;20032;-38
2023/09/11 10:41:13;;;;;;;5.57;3.55;;;22.90;99.90;;;;;;5053481;28;20033;-38
2023/09/11 10:43:38;;;;;;;5.28;3.45;;;22.90;99.90;;;;;;5054839;28;20206;-42
2023/09/11 10:46:17;;;;;;;4.13;3.25;;;22.90;99.90;;;;;;5055375;28;20044;-38
2023/09/11 10:48:43;;;;;;;5.28;3.42;;;22.90;99.90;;;;;;5054522;28;20389;-38
2023/09/11 10:51:09;;;;;;;5.28;3.33;;;22.90;99.90;;;;;;5054800;28;20029;-36
2023/09/11 10:53:35;;;;;;;4.75;3.50;;;22.90;99.90;;;;;;5054668;28;20028;-37
2023/09/11 10:56:02;;;;;;;4.15;3.47;;;22.90;99.90;;;;;;5055000;28;20031;-36
2023/09/11 10:58:28;;;;;;;10.23;4.13;;;23.00;99.90;;;;;;5054558;28;20147;-37
2023/09/11 11:00:56;;;;;;;9.43;4.20;;;23.10;99.90;;;;;;5052988;28;20078;-41
2023/09/11 11:03:34;;;;;;;8.57;4.57;;;23.20;99.90;;;;;;5054488;28;20049;-37
2023/09/11 11:06:06;;;;;;;10.30;4.60;;;23.20;99.90;;;;;;5054542;28;20104;-36
2023/09/11 11:08:38;;;;;;;12.57;4.75;;;23.20;99.90;;;;;;5054296;28;20107;-39
2023/09/11 11:11:03;;;;;;;9.15;4.95;;;23.20;99.90;;;;;;5054602;28;20377;-37
2023/09/11 11:13:30;;;;;;;8.73;4.60;;;23.20;99.90;;;;;;5054194;28;20111;-35
2023/09/11 11:16:31;;;;;;;5.97;4.53;;;23.20;99.90;;;;;;5054267;28;20106;-38
2023/09/11 11:18:57;;;;;;;7.90;4.13;;;23.20;99.90;;;;;;5031626;28;20047;-35
2023/09/11 11:21:23;;;;;;;9.13;4.38;;;23.20;99.90;;;;;;5049533;28;20102;-35
2023/09/11 11:23:53;;;;;;;6.05;3.60;;;;;;;;;;5053853;28;20045;-35
2023/09/11 11:26:19;;;;;;;7.30;4.38;;;23.10;99.90;;;;;;5052315;28;20048;-40
2023/09/11 11:28:45;;;;;;;6.53;3.97;;;23.10;99.90;;;;;;5053810;28;20056;-37
2023/09/11 11:31:18;;;;;;;7.38;4.05;;;23.10;99.90;;;;;;5053872;28;20025;-41
2023/09/11 11:33:50;;;;;;;7.30;4.05;;;23.10;99.90;;;;;;5053974;28;20024;-40
2023/09/11 11:36:17;;;;;;;5.07;3.70;;;23.10;99.90;;;;;;5054242;28;20033;-35
2023/09/11 11:38:43;;;;;;;6.75;3.65;;;23.10;99.90;;;;;;5053755;28;20021;-35
2023/09/11 11:41:10;;;;;;;7.15;4.10;;;23.20;99.90;;;;;;5053712;28;20029;-35
2023/09/11 11:43:36;;;;;;;7.40;3.85;;;23.20;99.90;;;;;;5053942;28;20033;-38
2023/09/11 11:46:03;;;;;;;5.90;3.67;;;23.20;99.90;;;;;;5053725;28;20105;-37
2023/09/11 11:48:29;;;;;;;7.25;3.97;;;23.20;99.90;;;;;;5053395;28;20090;-37
2023/09/11 11:50:55;;;;;;;5.38;3.95;;;23.20;99.90;;;;;;5053667;28;20017;-39
2023/09/11 11:53:24;;;;;;;10.25;4.47;;;23.20;99.90;;;;;;5053543;28;20163;-38
2023/09/11 11:55:56;;;;;;;6.57;3.90;;;23.20;99.90;;;;;;5053532;28;20032;-35
2023/09/11 11:58:21;;;;;;;8.18;4.57;;;23.20;99.90;;;;;;5053400;28;20056;-36
2023/09/11 12:01:01;;;;;;;5.15;3.63;;;23.20;99.90;;;;;;5053287;28;20490;-38
2023/09/11 12:03:29;;;;;;;9.27;3.83;;;23.20;99.90;;;;;;5053225;28;20033;-36
2023/09/11 12:05:57;;;;;;;5.50;3.97;;;23.20;99.90;;;;;;5053388;28;20025;-35
2023/09/11 12:08:25;;;;;;;10.32;3.83;;;23.20;99.90;;;;;;5053159;28;20031;-35
2023/09/11 12:10:51;;;;;;;6.90;3.80;;;23.30;99.90;;;;;;5053107;28;20025;-35
2023/09/11 12:13:25;;;;;;;6.15;3.70;;;23.20;99.90;;;;;;5053719;28;20040;-36
2023/09/11 12:15:56;;;;;;;5.05;3.78;;;23.30;99.90;;;;;;5053100;28;20103;-35
2023/09/11 12:18:22;;;;;;;6.60;3.92;;;23.30;99.90;;;;;;5053091;28;20082;-36
2023/09/11 12:20:57;;;;;;;6.32;3.50;;;23.30;99.90;;;;;;5052986;28;20107;-38
2023/09/11 12:23:23;;;;;;;6.05;3.83;;;23.30;99.90;;;;;;5052873;28;20074;-36
2023/09/11 12:25:49;;;;;;;5.75;3.53;;;23.30;99.90;;;;;;5053001;28;20473;-40
2023/09/11 12:28:15;;;;;;;5.30;3.70;;;23.30;99.90;;;;;;5052747;28;20017;-40
2023/09/11 12:30:44;;;;;;;4.50;3.42;;;23.30;99.90;;;;;;5052929;28;20078;-39
2023/09/11 12:33:14;;;;;;;9.15;3.80;;;23.30;99.90;;;;;;5052829;28;20025;-41
2023/09/11 12:35:40;;;;;;;3.92;3.08;;;23.30;99.90;;;;;;5052912;28;20032;-41
2023/09/11 12:38:10;;;;;;;5.93;3.50;;;23.30;99.90;;;;;;5052221;28;20024;-39
2023/09/11 12:40:42;;;;;;;6.72;3.42;;;23.30;99.90;;;;;;5052494;28;20028;-39
2023/09/11 12:43:09;;;;;;;7.55;4.28;;;23.30;99.90;;;;;;5052773;28;20074;-40
2023/09/11 12:45:35;;;;;;;4.85;3.47;;;23.30;99.90;;;;;;5051282;28;20036;-40
2023/09/11 12:48:05;;;;;;;4.05;3.33;;;23.30;99.90;;;;;;5052324;28;20033;-41